createdAt,value
2024-04-18T00:00:47.746Z,97696.40
2024-04-18T00:01:51.277Z,97697.28
2024-04-18T00:02:53.318Z,97697.52
2024-04-18T00:04:07.294Z,97697.04
2024-04-18T00:05:09.421Z,97696.21
2024-04-18T00:06:11.514Z,97696.32
2024-04-18T00:07:13.562Z,97695.56
2024-04-18T00:08:15.605Z,97695.38
2024-04-18T00:09:17.690Z,97694.72
2024-04-18T00:10:19.765Z,97693.27
2024-04-18T00:11:22.467Z,97694.37
2024-04-18T00:12:24.516Z,97694.60
2024-04-18T00:13:26.540Z,97693.13
2024-04-18T00:14:37.499Z,97694.59
2024-04-18T00:15:52.162Z,97695.52
2024-04-18T00:17:08.151Z,97694.36
2024-04-18T00:18:10.245Z,97695.26
2024-04-18T00:19:12.301Z,97694.96
2024-04-18T00:20:14.338Z,97695.77
2024-04-18T00:21:16.454Z,97695.55
2024-04-18T00:22:28.892Z,97693.59
2024-04-18T00:23:37.868Z,97693.02
2024-04-18T00:24:45.781Z,97692.09
2024-04-18T00:25:56.715Z,97690.98
2024-04-18T00:26:58.784Z,97690.12
2024-04-18T00:28:09.977Z,97689.14
2024-04-18T00:29:14.663Z,97689.27
2024-04-18T00:30:16.945Z,97688.84
2024-04-18T00:31:26.376Z,97688.82
2024-04-18T00:32:34.112Z,97687.97
2024-04-18T00:33:54.603Z,97688.07
2024-04-18T00:35:03.364Z,97688.40
2024-04-18T00:36:11.367Z,97687.33
2024-04-18T00:37:25.258Z,97686.18
2024-04-18T00:38:36.203Z,97686.70
2024-04-18T00:39:38.745Z,97686.63
2024-04-18T00:40:43.912Z,97686.73
2024-04-18T00:41:54.709Z,97687.19
2024-04-18T00:43:04.307Z,97687.59
2024-04-18T00:44:15.835Z,97687.15
2024-04-18T00:45:19.411Z,97688.35
2024-04-18T00:46:27.264Z,97688.98
2024-04-18T00:47:32.205Z,97690.42
2024-04-18T00:48:43.688Z,97691.73
2024-04-18T00:49:45.852Z,97691.78
2024-04-18T00:50:49.940Z,97692.01
2024-04-18T00:51:55.490Z,97692.88
2024-04-18T00:52:59.508Z,97693.98
2024-04-18T00:54:02.512Z,97695.25
2024-04-18T00:55:06.268Z,97696.02
2024-04-18T00:56:08.322Z,97697.03
2024-04-18T00:57:23.319Z,97696.73
2024-04-18T00:58:25.870Z,97697.08
2024-04-18T00:59:47.927Z,97698.05
2024-04-18T01:00:50.520Z,97698.65
2024-04-18T01:02:11.853Z,97699.67
2024-04-18T01:03:14.112Z,97700.25
2024-04-18T01:04:16.503Z,97700.38
2024-04-18T01:05:18.962Z,97699.96
2024-04-18T01:06:22.249Z,97699.33
2024-04-18T01:07:42.848Z,97698.54
2024-04-18T01:09:00.778Z,97697.75
2024-04-18T01:10:06.049Z,97697.76
2024-04-18T01:11:08.090Z,97697.13
2024-04-18T01:12:10.158Z,97696.24
2024-04-18T01:13:12.251Z,97695.39
2024-04-18T01:14:32.953Z,97693.49
2024-04-18T01:15:37.623Z,97692.28
2024-04-18T01:16:39.675Z,97691.79
2024-04-18T01:17:41.855Z,97691.23
2024-04-18T01:18:44.132Z,97690.99
2024-04-18T01:19:52.208Z,97691.25
2024-04-18T01:20:54.255Z,97692.34
2024-04-18T01:21:58.890Z,97693.09
2024-04-18T01:23:02.290Z,97693.41
2024-04-18T01:24:33.763Z,97693.56
2024-04-18T01:25:35.967Z,97694.05
2024-04-18T01:26:38.080Z,97694.13
2024-04-18T01:27:40.157Z,97694.52
2024-04-18T01:28:42.218Z,97694.51
2024-04-18T01:29:44.292Z,97694.94
2024-04-18T01:31:05.253Z,97695.80
2024-04-18T01:32:07.297Z,97696.35
2024-04-18T01:33:09.466Z,97696.63
2024-04-18T01:34:11.644Z,97697.59
2024-04-18T01:35:13.705Z,97699.19
2024-04-18T01:36:21.596Z,97700.41
2024-04-18T01:37:26.226Z,97700.89
2024-04-18T01:38:28.268Z,97701.91
2024-04-18T01:39:30.324Z,97702.84
2024-04-18T01:40:41.038Z,97703.49
2024-04-18T01:42:01.788Z,97705.81
2024-04-18T01:43:18.842Z,97706.39
2024-04-18T01:44:32.979Z,97707.39
2024-04-18T01:45:53.754Z,97706.58
2024-04-18T01:46:57.860Z,97708.14
2024-04-18T01:48:05.942Z,97708.87
2024-04-18T01:49:15.865Z,97709.72
2024-04-18T01:50:29.824Z,97709.98
2024-04-18T01:51:32.003Z,97710.14
2024-04-18T01:52:34.168Z,97710.34
2024-04-18T01:53:38.791Z,97709.09
2024-04-18T01:54:52.828Z,97709.13
2024-04-18T01:56:05.069Z,97709.42
2024-04-18T01:57:19.174Z,97710.18
2024-04-18T01:58:50.142Z,97710.91
2024-04-18T01:59:52.214Z,97711.23
2024-04-18T02:00:54.304Z,97711.36
2024-04-18T02:01:56.353Z,97712.74
2024-04-18T02:02:58.477Z,97713.14
2024-04-18T02:04:18.669Z,97714.34
2024-04-18T02:05:20.723Z,97712.35
2024-04-18T02:06:22.892Z,97711.79
2024-04-18T02:07:25.985Z,97711.72
2024-04-18T02:08:48.467Z,97711.69
2024-04-18T02:10:13.513Z,97713.33
2024-04-18T02:11:34.119Z,97713.53
2024-04-18T02:12:45.290Z,97713.49
2024-04-18T02:14:13.320Z,97714.22
2024-04-18T02:15:15.399Z,97713.89
2024-04-18T02:16:37.388Z,97713.76
2024-04-18T02:17:58.158Z,97712.80
2024-04-18T02:19:16.816Z,97712.64
2024-04-18T02:20:33.994Z,97711.97
2024-04-18T02:21:55.046Z,97712.54
2024-04-18T02:23:08.816Z,97714.42
2024-04-18T02:24:25.604Z,97715.55
2024-04-18T02:25:27.627Z,97716.77
2024-04-18T02:26:33.747Z,97718.19
2024-04-18T02:27:36.453Z,97718.59
2024-04-18T02:28:56.911Z,97719.14
2024-04-18T02:30:04.800Z,97719.23
2024-04-18T02:31:12.645Z,97718.98
2024-04-18T02:32:26.554Z,97718.55
2024-04-18T02:33:29.310Z,97718.66
2024-04-18T02:34:50.968Z,97719.39
2024-04-18T02:35:59.076Z,97720.17
2024-04-18T02:37:30.214Z,97721.48
2024-04-18T02:38:32.350Z,97722.52
2024-04-18T02:39:38.775Z,97721.79
2024-04-18T02:41:04.926Z,97723.74
2024-04-18T02:42:25.546Z,97724.61
2024-04-18T02:43:33.728Z,97726.10
2024-04-18T02:44:36.073Z,97726.73
2024-04-18T02:45:38.161Z,97727.33
2024-04-18T02:46:58.569Z,97727.54
2024-04-18T02:48:00.619Z,97728.84
2024-04-18T02:49:17.754Z,97732.41
2024-04-18T02:50:31.702Z,97734.28
2024-04-18T02:51:33.795Z,97735.55
2024-04-18T02:52:47.541Z,97736.45
2024-04-18T02:53:52.279Z,97737.92
2024-04-18T02:54:54.403Z,97737.85
2024-04-18T02:55:56.471Z,97738.89
2024-04-18T02:57:07.533Z,97738.23
2024-04-18T02:58:12.531Z,97738.39
2024-04-18T02:59:15.875Z,97740.38
2024-04-18T03:00:23.893Z,97741.56
2024-04-18T03:01:44.074Z,97743.79
2024-04-18T03:02:46.195Z,97744.42
2024-04-18T03:03:51.463Z,97745.03
2024-04-18T03:05:08.013Z,97746.09
2024-04-18T03:06:10.108Z,97746.93
2024-04-18T03:07:15.328Z,97747.63
2024-04-18T03:08:23.054Z,97748.29
2024-04-18T03:09:25.130Z,97748.20
2024-04-18T03:10:29.960Z,97747.71
2024-04-18T03:11:34.704Z,97747.16
2024-04-18T03:12:45.722Z,97745.40
2024-04-18T03:14:16.470Z,97745.47
2024-04-18T03:15:34.721Z,97744.88
2024-04-18T03:16:51.095Z,97743.55
2024-04-18T03:17:54.207Z,97742.80
2024-04-18T03:19:13.068Z,97742.23
2024-04-18T03:20:27.017Z,97744.32
2024-04-18T03:21:44.619Z,97746.30
2024-04-18T03:22:53.271Z,97747.18
2024-04-18T03:23:55.334Z,97747.90
2024-04-18T03:25:15.767Z,97748.20
2024-04-18T03:26:37.290Z,97748.34
2024-04-18T03:27:39.377Z,97749.34
2024-04-18T03:28:41.445Z,97750.89
2024-04-18T03:29:43.503Z,97752.71
2024-04-18T03:31:05.491Z,97754.51
2024-04-18T03:32:07.988Z,97756.13
2024-04-18T03:33:19.090Z,97756.21
2024-04-18T03:34:21.143Z,97756.35
2024-04-18T03:35:25.909Z,97757.26
2024-04-18T03:36:50.174Z,97757.82
2024-04-18T03:38:04.336Z,97756.74
2024-04-18T03:39:06.502Z,97757.34
2024-04-18T03:40:08.550Z,97757.07
2024-04-18T03:41:10.612Z,97755.93
2024-04-18T03:42:32.650Z,97753.74
2024-04-18T03:43:38.868Z,97754.12
2024-04-18T03:44:41.191Z,97755.16
2024-04-18T03:45:43.397Z,97757.43
2024-04-18T03:47:03.784Z,97758.02
2024-04-18T03:48:08.881Z,97758.94
2024-04-18T03:49:19.549Z,97760.89
2024-04-18T03:50:21.605Z,97762.69
2024-04-18T03:51:26.707Z,97762.64
2024-04-18T03:52:38.492Z,97762.23
2024-04-18T03:53:59.256Z,97761.68
2024-04-18T03:55:21.278Z,97761.94
2024-04-18T03:56:25.001Z,97762.71
2024-04-18T03:57:27.172Z,97762.76
2024-04-18T03:58:31.806Z,97763.73
2024-04-18T03:59:33.869Z,97765.06
2024-04-18T04:00:36.015Z,97766.04
2024-04-18T04:01:38.174Z,97766.65
2024-04-18T04:02:40.356Z,97767.50
2024-04-18T04:03:42.539Z,97767.80
2024-04-18T04:04:48.116Z,97768.60
2024-04-18T04:05:50.158Z,97770.38
2024-04-18T04:06:52.553Z,97771.87
2024-04-18T04:07:54.577Z,97772.85
2024-04-18T04:09:14.864Z,97773.91
2024-04-18T04:10:16.922Z,97776.32
2024-04-18T04:11:19.252Z,97778.62
2024-04-18T04:12:21.350Z,97780.83
2024-04-18T04:13:41.912Z,97781.76
2024-04-18T04:14:53.108Z,97782.72
2024-04-18T04:15:56.477Z,97783.43
2024-04-18T04:17:13.711Z,97784.52
2024-04-18T04:18:16.349Z,97785.70
2024-04-18T04:19:18.544Z,97786.86
2024-04-18T04:20:25.529Z,97788.30
2024-04-18T04:21:27.622Z,97789.68
2024-04-18T04:22:32.338Z,97791.45
2024-04-18T04:23:55.039Z,97793.95
2024-04-18T04:25:17.017Z,97795.66
2024-04-18T04:26:19.502Z,97796.46
2024-04-18T04:27:21.564Z,97797.65
2024-04-18T04:28:23.617Z,97799.71
2024-04-18T04:29:25.689Z,97800.53
2024-04-18T04:30:27.768Z,97800.63
2024-04-18T04:31:29.784Z,97801.13
2024-04-18T04:32:31.874Z,97801.37
2024-04-18T04:33:34.081Z,97802.55
2024-04-18T04:34:36.129Z,97803.77
2024-04-18T04:35:38.228Z,97804.94
2024-04-18T04:36:41.552Z,97806.09
2024-04-18T04:37:43.636Z,97807.44
2024-04-18T04:38:45.703Z,97808.10
2024-04-18T04:39:47.786Z,97808.35
2024-04-18T04:40:55.783Z,97808.95
2024-04-18T04:41:57.842Z,97810.02
2024-04-18T04:43:00.578Z,97810.25
2024-04-18T04:44:02.794Z,97811.26
2024-04-18T04:45:23.189Z,97812.82
2024-04-18T04:46:39.952Z,97813.44
2024-04-18T04:47:53.838Z,97813.30
2024-04-18T04:48:59.177Z,97812.91
2024-04-18T04:50:01.310Z,97813.89
2024-04-18T04:51:14.175Z,97814.77
2024-04-18T04:52:16.247Z,97816.83
2024-04-18T04:53:18.317Z,97817.08
2024-04-18T04:54:37.539Z,97816.68
2024-04-18T04:55:39.602Z,97816.95
2024-04-18T04:56:43.028Z,97817.84
2024-04-18T04:57:53.881Z,97818.85
2024-04-18T04:58:55.977Z,97818.98
2024-04-18T04:59:58.034Z,97818.15
2024-04-18T05:01:20.017Z,97818.55
2024-04-18T05:02:31.457Z,97819.69
2024-04-18T05:03:33.688Z,97820.96
2024-04-18T05:04:55.706Z,97821.08
2024-04-18T05:06:06.566Z,97820.60
2024-04-18T05:07:11.243Z,97820.06
2024-04-18T05:08:13.311Z,97819.15
2024-04-18T05:09:17.092Z,97818.31
2024-04-18T05:10:19.860Z,97818.98
2024-04-18T05:11:22.003Z,97821.19
2024-04-18T05:12:24.126Z,97823.13
2024-04-18T05:13:26.162Z,97824.43
2024-04-18T05:14:48.176Z,97826.63
2024-04-18T05:16:28.297Z,97829.71
2024-04-18T05:17:48.282Z,97833.48
2024-04-18T05:18:50.704Z,97835.94
2024-04-18T05:19:52.850Z,97837.60
2024-04-18T05:21:11.054Z,97839.43
2024-04-18T05:22:31.824Z,97841.17
2024-04-18T05:23:33.872Z,97844.08
2024-04-18T05:24:36.055Z,97846.25
2024-04-18T05:25:38.159Z,97848.22
2024-04-18T05:26:55.095Z,97849.84
2024-04-18T05:28:09.926Z,97850.73
2024-04-18T05:29:30.566Z,97851.94
2024-04-18T05:30:51.440Z,97854.30
2024-04-18T05:31:53.721Z,97855.88
2024-04-18T05:32:55.816Z,97856.48
2024-04-18T05:33:57.919Z,97857.71
2024-04-18T05:34:59.962Z,97858.90
2024-04-18T05:36:03.690Z,97859.59
2024-04-18T05:37:05.867Z,97860.90
2024-04-18T05:38:07.960Z,97862.06
2024-04-18T05:39:10.627Z,97862.71
2024-04-18T05:40:12.691Z,97862.80
2024-04-18T05:41:14.732Z,97862.55
2024-04-18T05:42:25.663Z,97863.30
2024-04-18T05:43:43.045Z,97864.80
2024-04-18T05:44:45.206Z,97866.30
2024-04-18T05:45:48.147Z,97866.95
2024-04-18T05:46:50.228Z,97867.86
2024-04-18T05:47:52.364Z,97868.64
2024-04-18T05:48:54.476Z,97868.89
2024-04-18T05:49:56.721Z,97868.92
2024-04-18T05:50:59.494Z,97869.58
2024-04-18T05:52:01.574Z,97869.59
2024-04-18T05:53:06.319Z,97869.90
2024-04-18T05:54:40.601Z,97870.37
2024-04-18T05:55:42.956Z,97871.07
2024-04-18T05:56:45.011Z,97871.28
2024-04-18T05:57:47.089Z,97871.47
2024-04-18T05:59:07.572Z,97871.30
2024-04-18T06:00:11.562Z,97872.44
2024-04-18T06:01:14.365Z,97871.37
2024-04-18T06:02:16.434Z,97872.03
2024-04-18T06:03:19.534Z,97872.44
2024-04-18T06:04:21.673Z,97873.31
2024-04-18T06:05:43.647Z,97875.59
2024-04-18T06:06:48.627Z,97877.59
2024-04-18T06:07:53.809Z,97878.87
2024-04-18T06:08:55.921Z,97880.72
2024-04-18T06:09:58.166Z,97882.93
2024-04-18T06:11:00.216Z,97881.64
2024-04-18T06:12:02.289Z,97882.13
2024-04-18T06:13:07.721Z,97883.32
2024-04-18T06:14:09.819Z,97882.59
2024-04-18T06:15:11.887Z,97883.02
2024-04-18T06:16:14.027Z,97883.83
2024-04-18T06:17:24.827Z,97884.87
2024-04-18T06:18:29.353Z,97885.02
2024-04-18T06:19:31.422Z,97885.61
2024-04-18T06:20:39.565Z,97885.47
2024-04-18T06:21:41.680Z,97888.39
2024-04-18T06:22:43.722Z,97888.57
2024-04-18T06:24:00.697Z,97889.72
2024-04-18T06:25:03.157Z,97889.36
2024-04-18T06:26:05.247Z,97889.30
2024-04-18T06:27:07.888Z,97890.85
2024-04-18T06:28:13.306Z,97890.78
2024-04-18T06:29:15.395Z,97892.04
2024-04-18T06:30:17.567Z,97891.98
2024-04-18T06:31:19.825Z,97893.91
2024-04-18T06:32:22.057Z,97892.92
2024-04-18T06:33:25.890Z,97893.09
2024-04-18T06:34:29.102Z,97893.00
2024-04-18T06:35:31.216Z,97892.54
2024-04-18T06:36:33.366Z,97892.68
2024-04-18T06:37:35.407Z,97892.45
2024-04-18T06:38:37.883Z,97893.51
2024-04-18T06:39:39.975Z,97892.00
2024-04-18T06:40:42.029Z,97892.10
2024-04-18T06:41:44.115Z,97892.05
2024-04-18T06:42:46.222Z,97893.69
2024-04-18T06:43:48.299Z,97893.03
2024-04-18T06:44:50.332Z,97893.55
2024-04-18T06:45:53.038Z,97893.45
2024-04-18T06:47:01.742Z,97892.95
2024-04-18T06:48:08.750Z,97894.16
2024-04-18T06:49:10.860Z,97893.93
2024-04-18T06:50:14.186Z,97894.98
2024-04-18T06:51:16.221Z,97895.58
2024-04-18T06:52:18.299Z,97896.39
2024-04-18T06:53:20.334Z,97896.67
2024-04-18T06:54:22.493Z,97896.92
2024-04-18T06:55:25.031Z,97896.64
2024-04-18T06:56:27.083Z,97898.25
2024-04-18T06:57:29.246Z,97899.02
2024-04-18T06:58:31.775Z,97898.80
2024-04-18T06:59:34.944Z,97901.05
2024-04-18T07:00:38.854Z,97902.73
2024-04-18T07:01:40.963Z,97903.52
2024-04-18T07:02:44.615Z,97901.72
2024-04-18T07:04:05.052Z,97901.65
2024-04-18T07:05:07.268Z,97903.30
2024-04-18T07:06:21.149Z,97904.76
2024-04-18T07:07:37.212Z,97906.20
2024-04-18T07:08:59.191Z,97906.14
2024-04-18T07:10:19.194Z,97906.74
2024-04-18T07:11:28.948Z,97907.08
2024-04-18T07:12:31.030Z,97905.09
2024-04-18T07:13:53.631Z,97906.44
2024-04-18T07:15:05.083Z,97906.01
2024-04-18T07:16:27.426Z,97907.18
2024-04-18T07:17:29.569Z,97907.45
2024-04-18T07:18:40.374Z,97908.79
2024-04-18T07:19:43.566Z,97909.73
2024-04-18T07:21:05.547Z,97910.16
2024-04-18T07:22:11.151Z,97910.53
2024-04-18T07:23:28.311Z,97908.72
2024-04-18T07:24:38.065Z,97909.68
2024-04-18T07:25:40.220Z,97908.50
2024-04-18T07:27:01.866Z,97908.67
2024-04-18T07:28:04.032Z,97909.78
2024-04-18T07:29:06.086Z,97906.53
2024-04-18T07:30:08.343Z,97906.88
2024-04-18T07:31:22.164Z,97909.59
2024-04-18T07:32:44.466Z,97909.14
2024-04-18T07:33:47.884Z,97910.12
2024-04-18T07:34:53.500Z,97911.84
2024-04-18T07:36:15.566Z,97914.16
2024-04-18T07:37:17.959Z,97913.72
2024-04-18T07:38:20.106Z,97912.31
2024-04-18T07:39:22.239Z,97914.40
2024-04-18T07:40:24.301Z,97914.06
2024-04-18T07:41:26.368Z,97914.52
2024-04-18T07:42:28.462Z,97916.36
2024-04-18T07:43:31.622Z,97916.13
2024-04-18T07:44:33.946Z,97915.67
2024-04-18T07:45:36.050Z,97916.71
2024-04-18T07:46:39.762Z,97916.86
2024-04-18T07:47:42.039Z,97917.54
2024-04-18T07:48:44.303Z,97917.32
2024-04-18T07:49:49.263Z,97918.57
2024-04-18T07:50:51.602Z,97918.33
2024-04-18T07:51:53.687Z,97920.23
2024-04-18T07:53:03.734Z,97919.39
2024-04-18T07:54:11.456Z,97923.26
2024-04-18T07:55:14.677Z,97923.85
2024-04-18T07:56:17.387Z,97923.14
2024-04-18T07:57:20.065Z,97924.51
2024-04-18T07:58:23.788Z,97921.98
2024-04-18T07:59:26.512Z,97923.25
2024-04-18T08:00:29.981Z,97927.89
2024-04-18T08:01:34.198Z,97926.35
2024-04-18T08:02:38.795Z,97924.57
2024-04-18T08:03:48.213Z,97926.91
2024-04-18T08:05:01.862Z,97926.69
2024-04-18T08:06:07.998Z,97926.22
2024-04-18T08:07:15.024Z,97930.55
2024-04-18T08:08:23.241Z,97932.30
2024-04-18T08:09:30.035Z,97931.63
2024-04-18T08:10:42.585Z,97931.55
2024-04-18T08:12:22.594Z,97931.33
2024-04-18T08:13:20.043Z,97931.50
2024-04-18T08:14:27.690Z,97934.22
2024-04-18T08:16:48.725Z,97931.41
2024-04-18T08:17:50.837Z,97936.24
2024-04-18T08:18:52.892Z,97936.71
2024-04-18T08:19:54.990Z,97935.95
2024-04-18T08:20:57.280Z,97935.14
2024-04-18T08:22:00.268Z,97934.88
2024-04-18T08:23:04.575Z,97932.88
2024-04-18T08:24:08.229Z,97933.45
2024-04-18T08:25:10.303Z,97932.21
2024-04-18T08:26:12.372Z,97933.69
2024-04-18T08:27:14.568Z,97932.02
2024-04-18T08:28:16.981Z,97931.98
2024-04-18T08:29:22.526Z,97932.02
2024-04-18T08:30:24.596Z,97930.17
2024-04-18T08:31:26.681Z,97930.84
2024-04-18T08:32:29.007Z,97931.91
2024-04-18T08:33:31.220Z,97929.26
2024-04-18T08:34:37.675Z,97930.33
2024-04-18T08:35:44.029Z,97931.05
2024-04-18T08:36:46.445Z,97933.48
2024-04-18T08:37:50.401Z,97933.98
2024-04-18T08:38:52.443Z,97934.06
2024-04-18T08:39:54.713Z,97934.88
2024-04-18T08:41:01.000Z,97934.01
2024-04-18T08:42:04.323Z,97936.39
2024-04-18T08:43:06.381Z,97937.44
2024-04-18T08:44:09.084Z,97937.80
2024-04-18T08:45:13.138Z,97938.61
2024-04-18T08:46:16.268Z,97940.98
2024-04-18T08:47:18.575Z,97941.13
2024-04-18T08:48:23.663Z,97942.56
2024-04-18T08:49:26.990Z,97945.04
2024-04-18T08:50:29.481Z,97947.28
2024-04-18T08:51:33.570Z,97945.70
2024-04-18T08:52:38.453Z,97946.04
2024-04-18T08:53:40.917Z,97943.59
2024-04-18T08:54:43.261Z,97942.84
2024-04-18T08:55:50.791Z,97940.87
2024-04-18T08:56:56.638Z,97939.29
2024-04-18T08:58:02.403Z,97939.88
2024-04-18T08:59:06.625Z,97940.08
2024-04-18T09:00:09.451Z,97939.96
2024-04-18T09:01:11.633Z,97939.85
2024-04-18T09:02:14.667Z,97940.30
2024-04-18T09:03:16.867Z,97939.23
2024-04-18T09:04:19.037Z,97937.41
2024-04-18T09:05:21.323Z,97941.20
2024-04-18T09:06:23.497Z,97936.16
2024-04-18T09:07:25.545Z,97936.52
2024-04-18T09:08:27.600Z,97942.36
2024-04-18T09:09:29.648Z,97943.10
2024-04-18T09:10:32.180Z,97944.88
2024-04-18T09:11:35.192Z,97942.47
2024-04-18T09:12:38.186Z,97942.48
2024-04-18T09:13:40.317Z,97941.80
2024-04-18T09:14:42.374Z,97943.19
2024-04-18T09:15:44.404Z,97943.98
2024-04-18T09:16:46.461Z,97943.69
2024-04-18T09:18:04.537Z,97945.13
2024-04-18T09:19:08.158Z,97948.05
2024-04-18T09:20:10.787Z,97943.58
2024-04-18T09:21:14.247Z,97944.77
2024-04-18T09:22:17.521Z,97945.54
2024-04-18T09:23:19.821Z,97944.48
2024-04-18T09:24:22.116Z,97943.09
2024-04-18T09:25:24.168Z,97940.97
2024-04-18T09:26:29.121Z,97940.41
2024-04-18T09:27:33.637Z,97940.35
2024-04-18T09:28:38.326Z,97939.49
2024-04-18T09:29:49.425Z,97937.71
2024-04-18T09:30:56.938Z,97941.31
2024-04-18T09:32:00.508Z,97941.42
2024-04-18T09:33:06.659Z,97943.23
2024-04-18T09:34:14.359Z,97943.77
2024-04-18T09:35:17.175Z,97941.37
2024-04-18T09:36:20.208Z,97945.91
2024-04-18T09:37:23.071Z,97949.43
2024-04-18T09:38:25.523Z,97949.27
2024-04-18T09:39:28.170Z,97951.55
2024-04-18T09:40:33.944Z,97951.99
2024-04-18T09:41:37.929Z,97951.59
2024-04-18T09:42:49.744Z,97950.18
2024-04-18T09:44:17.901Z,97950.09
2024-04-18T09:45:20.715Z,97950.24
2024-04-18T09:46:24.058Z,97948.38
2024-04-18T09:47:26.903Z,97946.80
2024-04-18T09:48:30.341Z,97943.77
2024-04-18T09:49:32.627Z,97942.21
2024-04-18T09:50:35.780Z,97945.02
2024-04-18T09:51:39.316Z,97950.40
2024-04-18T09:52:45.063Z,97948.03
2024-04-18T09:53:47.371Z,97945.93
2024-04-18T09:54:50.196Z,97945.76
2024-04-18T09:55:53.218Z,97943.75
2024-04-18T09:56:57.100Z,97943.50
2024-04-18T09:57:59.835Z,97944.37
2024-04-18T09:59:03.400Z,97948.42
2024-04-18T10:00:08.684Z,97942.48
2024-04-18T10:01:20.408Z,97946.13
2024-04-18T10:02:23.559Z,97948.88
2024-04-18T10:03:27.937Z,97948.59
2024-04-18T10:04:30.652Z,97949.22
2024-04-18T10:05:34.204Z,97947.63
2024-04-18T10:06:39.447Z,97944.58
2024-04-18T10:07:42.936Z,97942.48
2024-04-18T10:08:50.839Z,97943.12
2024-04-18T10:09:53.998Z,97940.73
2024-04-18T10:10:59.925Z,97946.77
2024-04-18T10:12:02.288Z,97939.59
2024-04-18T10:13:04.500Z,97941.98
2024-04-18T10:14:07.388Z,97947.23
2024-04-18T10:15:09.483Z,97945.09
2024-04-18T10:16:13.420Z,97950.68
2024-04-18T10:17:25.730Z,97951.42
2024-04-18T10:18:37.487Z,97954.48
2024-04-18T10:19:42.034Z,97955.09
2024-04-18T10:20:45.009Z,97952.43
2024-04-18T10:23:03.474Z,97952.76
2024-04-18T10:24:05.681Z,97948.96
2024-04-18T10:25:19.071Z,97948.58
2024-04-18T10:26:22.046Z,97950.54
2024-04-18T10:27:24.769Z,97951.99
2024-04-18T10:28:30.080Z,97947.30
2024-04-18T10:29:32.131Z,97945.36
2024-04-18T10:30:39.364Z,97946.86
2024-04-18T10:31:41.648Z,97947.66
2024-04-18T10:32:45.118Z,97946.23
2024-04-18T10:33:47.278Z,97943.89
2024-04-18T10:34:49.373Z,97950.10
2024-04-18T10:35:52.030Z,97944.60
2024-04-18T10:36:55.757Z,97945.97
2024-04-18T10:37:59.853Z,97947.35
2024-04-18T10:39:02.119Z,97953.05
2024-04-18T10:40:05.516Z,97948.98
2024-04-18T10:41:09.221Z,97949.01
2024-04-18T10:42:11.511Z,97953.13
2024-04-18T10:43:17.521Z,97948.06
2024-04-18T10:44:24.917Z,97947.99
2024-04-18T10:45:27.386Z,97943.38
2024-04-18T10:46:29.654Z,97947.52
2024-04-18T10:47:31.977Z,97952.68
2024-04-18T10:48:34.594Z,97944.09
2024-04-18T10:49:38.886Z,97952.30
2024-04-18T10:50:41.181Z,97950.85
2024-04-18T10:51:44.904Z,97950.30
2024-04-18T10:52:47.172Z,97951.22
2024-04-18T10:53:49.223Z,97951.86
2024-04-18T10:54:51.260Z,97949.36
2024-04-18T10:55:53.448Z,97950.94
2024-04-18T10:56:55.630Z,97944.70
2024-04-18T10:57:57.681Z,97946.39
2024-04-18T10:58:59.741Z,97944.16
2024-04-18T11:00:02.921Z,97947.44
2024-04-18T11:01:05.023Z,97947.80
2024-04-18T11:02:08.084Z,97945.27
2024-04-18T11:03:11.071Z,97944.21
2024-04-18T11:04:13.273Z,97943.85
2024-04-18T11:05:15.326Z,97950.57
2024-04-18T11:06:23.202Z,97950.80
2024-04-18T11:07:25.242Z,97951.95
2024-04-18T11:08:34.251Z,97950.38
2024-04-18T11:09:40.026Z,97948.90
2024-04-18T11:10:42.698Z,97945.34
2024-04-18T11:11:44.886Z,97947.45
2024-04-18T11:12:47.006Z,97942.45
2024-04-18T11:13:49.607Z,97937.52
2024-04-18T11:14:52.707Z,97942.21
2024-04-18T11:15:54.735Z,97943.05
2024-04-18T11:17:00.357Z,97937.37
2024-04-18T11:18:05.655Z,97946.81
2024-04-18T11:19:09.314Z,97947.48
2024-04-18T11:20:11.409Z,97952.37
2024-04-18T11:21:16.927Z,97954.44
2024-04-18T11:22:19.283Z,97953.06
2024-04-18T11:23:35.145Z,97951.70
2024-04-18T11:24:42.126Z,97949.63
2024-04-18T11:25:44.352Z,97949.06
2024-04-18T11:26:49.356Z,97950.85
2024-04-18T11:27:51.639Z,97951.31
2024-04-18T11:28:56.192Z,97952.83
2024-04-18T11:29:58.475Z,97952.62
2024-04-18T11:31:00.627Z,97950.91
2024-04-18T11:32:05.303Z,97953.80
2024-04-18T11:33:10.930Z,97947.22
2024-04-18T11:34:13.312Z,97942.29
2024-04-18T11:35:17.422Z,97948.57
2024-04-18T11:36:19.990Z,97954.06
2024-04-18T11:37:22.335Z,97954.11
2024-04-18T11:38:24.782Z,97951.13
2024-04-18T11:39:29.804Z,97955.04
2024-04-18T11:40:31.893Z,97958.10
2024-04-18T11:41:34.232Z,97963.46
2024-04-18T11:42:36.246Z,97969.94
2024-04-18T11:43:38.511Z,97965.28
2024-04-18T11:44:40.631Z,97965.38
2024-04-18T11:45:42.802Z,97965.80
2024-04-18T11:46:47.143Z,97965.05
2024-04-18T11:47:55.942Z,97966.89
2024-04-18T11:48:58.268Z,97962.96
2024-04-18T11:50:00.560Z,97964.37
2024-04-18T11:51:03.016Z,97971.56
2024-04-18T11:52:05.343Z,97968.91
2024-04-18T11:53:09.290Z,97966.59
2024-04-18T11:54:11.380Z,97964.59
2024-04-18T11:55:13.797Z,97966.75
2024-04-18T11:56:15.865Z,97966.13
2024-04-18T11:57:18.129Z,97970.79
2024-04-18T11:58:20.172Z,97970.74
2024-04-18T11:59:22.572Z,97969.78
2024-04-18T12:00:24.896Z,97966.41
2024-04-18T12:01:44.698Z,97964.87
2024-04-18T12:02:55.736Z,97959.70
2024-04-18T12:03:57.870Z,97958.94
2024-04-18T12:05:07.817Z,97957.48
2024-04-18T12:06:23.824Z,97958.82
2024-04-18T12:07:26.008Z,97969.14
2024-04-18T12:08:29.266Z,97969.34
2024-04-18T12:09:36.956Z,97967.30
2024-04-18T12:10:39.094Z,97967.48
2024-04-18T12:11:41.152Z,97969.27
2024-04-18T12:12:46.082Z,97970.61
2024-04-18T12:13:57.199Z,97971.77
2024-04-18T12:14:59.271Z,97973.57
2024-04-18T12:16:01.621Z,97973.95
2024-04-18T12:17:06.566Z,97976.39
2024-04-18T12:18:17.489Z,97973.63
2024-04-18T12:19:25.568Z,97971.70
2024-04-18T12:20:27.700Z,97967.57
2024-04-18T12:21:29.858Z,97969.16
2024-04-18T12:22:31.970Z,97977.21
2024-04-18T12:23:49.119Z,97976.20
2024-04-18T12:24:51.558Z,97977.92
2024-04-18T12:25:53.637Z,97975.98
2024-04-18T12:26:55.682Z,97974.95
2024-04-18T12:27:57.733Z,97977.91
2024-04-18T12:29:05.575Z,97974.46
2024-04-18T12:30:29.978Z,97979.23
2024-04-18T12:31:51.142Z,97975.95
2024-04-18T12:32:53.249Z,97971.85
2024-04-18T12:34:00.156Z,97974.02
2024-04-18T12:35:02.242Z,97973.93
2024-04-18T12:36:05.334Z,97973.73
2024-04-18T12:37:07.648Z,97979.13
2024-04-18T12:38:10.452Z,97980.48
2024-04-18T12:39:18.557Z,97977.62
2024-04-18T12:40:20.618Z,97982.23
2024-04-18T12:41:42.639Z,97983.33
2024-04-18T12:42:47.692Z,97984.53
2024-04-18T12:43:49.942Z,97981.87
2024-04-18T12:45:30.212Z,97984.39
2024-04-18T12:46:32.630Z,97983.42
2024-04-18T12:47:44.700Z,97987.71
2024-04-18T12:48:55.509Z,97984.66
2024-04-18T12:49:58.337Z,97982.99
2024-04-18T12:51:01.468Z,97984.46
2024-04-18T12:52:16.560Z,97993.60
2024-04-18T12:53:18.790Z,97990.89
2024-04-18T12:54:31.317Z,97987.13
2024-04-18T12:55:35.596Z,97989.41
2024-04-18T12:56:37.697Z,97995.34
2024-04-18T12:57:56.066Z,97993.52
2024-04-18T12:59:09.152Z,97992.48
2024-04-18T13:00:20.078Z,97991.79
2024-04-18T13:01:34.061Z,97996.79
2024-04-18T13:02:54.188Z,97991.12
2024-04-18T13:04:11.537Z,97991.52